sensor_id;sensor_type;location;lat;lon;timestamp;pressure;altitude;pressure_sealevel;temperature;humidity
70445;BME280;57902;49.638;11.070;2023-12-29T00:00:47;98243.91;;;8.26;100.00
70445;BME280;57902;49.638;11.070;2023-12-29T00:03:14;98238.91;;;8.19;100.00
70445;BME280;57902;49.638;11.070;2023-12-29T00:05:41;98237.06;;;8.24;100.00
70445;BME280;57902;49.638;11.070;2023-12-29T00:08:07;98225.16;;;8.20;100.00
70445;BME280;57902;49.638;11.070;2023-12-29T00:10:34;98227.81;;;8.17;100.00
70445;BME280;57902;49.638;11.070;2023-12-29T00:13:00;98223.56;;;8.15;100.00
70445;BME280;57902;49.638;11.070;2023-12-29T00:15:27;98228.72;;;8.15;100.00
70445;BME280;57902;49.638;11.070;2023-12-29T00:17:54;98228.50;;;8.26;100.00
70445;BME280;57902;49.638;11.070;2023-12-29T00:20:20;98233.50;;;8.32;100.00
70445;BME280;57902;49.638;11.070;2023-12-29T00:23:03;98239.81;;;8.17;100.00
70445;BME280;57902;49.638;11.070;2023-12-29T00:25:29;98233.22;;;8.05;100.00
70445;BME280;57902;49.638;11.070;2023-12-29T00:27:56;98240.97;;;8.02;100.00
70445;BME280;57902;49.638;11.070;2023-12-29T00:30:23;98236.84;;;7.95;100.00
70445;BME280;57902;49.638;11.070;2023-12-29T00:32:57;98247.06;;;7.96;100.00
70445;BME280;57902;49.638;11.070;2023-12-29T00:35:24;98231.88;;;7.84;100.00
70445;BME280;57902;49.638;11.070;2023-12-29T00:37:50;98244.81;;;7.79;100.00
70445;BME280;57902;49.638;11.070;2023-12-29T00:40:17;98239.78;;;7.75;100.00
70445;BME280;57902;49.638;11.070;2023-12-29T00:42:44;98236.44;;;7.71;100.00
70445;BME280;57902;49.638;11.070;2023-12-29T00:45:10;98241.44;;;7.77;100.00
70445;BME280;57902;49.638;11.070;2023-12-29T00:47:37;98226.16;;;7.71;100.00
70445;BME280;57902;49.638;11.070;2023-12-29T00:50:04;98220.97;;;7.74;100.00
70445;BME280;57902;49.638;11.070;2023-12-29T00:52:31;98217.59;;;7.70;100.00
70445;BME280;57902;49.638;11.070;2023-12-29T00:54:57;98221.91;;;7.70;100.00
70445;BME280;57902;49.638;11.070;2023-12-29T00:57:24;98213.38;;;7.69;100.00
70445;BME280;57902;49.638;11.070;2023-12-29T00:59:51;98215.94;;;7.69;100.00
70445;BME280;57902;49.638;11.070;2023-12-29T01:02:17;98212.38;;;7.75;100.00
70445;BME280;57902;49.638;11.070;2023-12-29T01:04:44;98214.06;;;7.78;100.00
70445;BME280;57902;49.638;11.070;2023-12-29T01:07:11;98215.72;;;7.80;100.00
70445;BME280;57902;49.638;11.070;2023-12-29T01:09:38;98197.75;;;7.80;100.00
70445;BME280;57902;49.638;11.070;2023-12-29T01:12:06;98208.75;;;7.85;100.00
70445;BME280;57902;49.638;11.070;2023-12-29T01:14:33;98216.25;;;7.96;100.00
70445;BME280;57902;49.638;11.070;2023-12-29T01:17:00;98210.88;;;8.09;100.00
70445;BME280;57902;49.638;11.070;2023-12-29T01:19:26;98216.09;;;8.04;100.00
70445;BME280;57902;49.638;11.070;2023-12-29T01:21:53;98216.72;;;8.15;100.00
70445;BME280;57902;49.638;11.070;2023-12-29T01:24:19;98218.66;;;8.04;100.00
70445;BME280;57902;49.638;11.070;2023-12-29T01:26:58;98222.13;;;8.01;100.00
70445;BME280;57902;49.638;11.070;2023-12-29T01:29:24;98228.31;;;7.93;100.00
70445;BME280;57902;49.638;11.070;2023-12-29T01:31:51;98228.44;;;7.86;100.00
70445;BME280;57902;49.638;11.070;2023-12-29T01:34:17;98217.50;;;7.77;100.00
70445;BME280;57902;49.638;11.070;2023-12-29T01:36:44;98215.97;;;7.68;100.00
70445;BME280;57902;49.638;11.070;2023-12-29T01:39:11;98209.97;;;7.67;100.00
70445;BME280;57902;49.638;11.070;2023-12-29T01:41:37;98213.44;;;7.66;100.00
70445;BME280;57902;49.638;11.070;2023-12-29T01:44:18;98216.59;;;7.79;100.00
70445;BME280;57902;49.638;11.070;2023-12-29T01:46:46;98213.19;;;7.79;100.00
70445;BME280;57902;49.638;11.070;2023-12-29T01:49:15;98201.34;;;7.71;100.00
70445;BME280;57902;49.638;11.070;2023-12-29T01:51:44;98188.75;;;7.61;100.00
70445;BME280;57902;49.638;11.070;2023-12-29T01:54:11;98194.81;;;7.55;100.00
70445;BME280;57902;49.638;11.070;2023-12-29T01:56:40;98188.94;;;7.48;100.00
70445;BME280;57902;49.638;11.070;2023-12-29T01:59:07;98197.53;;;7.47;100.00
70445;BME280;57902;49.638;11.070;2023-12-29T02:01:44;98191.50;;;7.48;100.00
70445;BME280;57902;49.638;11.070;2023-12-29T02:04:12;98185.63;;;7.43;100.00
70445;BME280;57902;49.638;11.070;2023-12-29T02:06:40;98198.47;;;7.43;100.00
70445;BME280;57902;49.638;11.070;2023-12-29T02:09:07;98189.91;;;7.43;100.00
70445;BME280;57902;49.638;11.070;2023-12-29T02:11:33;98191.56;;;7.45;100.00
70445;BME280;57902;49.638;11.070;2023-12-29T02:14:00;98193.16;;;7.52;100.00
70445;BME280;57902;49.638;11.070;2023-12-29T02:16:42;98185.41;;;7.56;100.00
70445;BME280;57902;49.638;11.070;2023-12-29T02:21:54;98182.03;;;7.53;100.00
70445;BME280;57902;49.638;11.070;2023-12-29T02:24:20;98170.84;;;7.58;100.00
70445;BME280;57902;49.638;11.070;2023-12-29T02:26:50;98182.78;;;7.59;100.00
70445;BME280;57902;49.638;11.070;2023-12-29T02:29:20;98164.72;;;7.63;100.00
70445;BME280;57902;49.638;11.070;2023-12-29T02:31:52;98172.97;;;7.79;100.00
70445;BME280;57902;49.638;11.070;2023-12-29T02:34:23;98178.91;;;7.83;100.00
70445;BME280;57902;49.638;11.070;2023-12-29T02:36:51;98188.97;;;7.92;100.00
70445;BME280;57902;49.638;11.070;2023-12-29T02:39:18;98176.97;;;7.93;100.00
70445;BME280;57902;49.638;11.070;2023-12-29T02:41:45;98171.75;;;7.97;100.00
70445;BME280;57902;49.638;11.070;2023-12-29T02:44:11;98176.06;;;7.95;100.00
70445;BME280;57902;49.638;11.070;2023-12-29T02:46:38;98171.06;;;7.89;100.00
70445;BME280;57902;49.638;11.070;2023-12-29T02:49:04;98164.19;;;7.89;100.00
70445;BME280;57902;49.638;11.070;2023-12-29T02:51:32;98164.19;;;7.89;100.00
70445;BME280;57902;49.638;11.070;2023-12-29T02:53:58;98150.63;;;7.84;100.00
70445;BME280;57902;49.638;11.070;2023-12-29T02:56:26;98145.63;;;7.78;100.00
70445;BME280;57902;49.638;11.070;2023-12-29T02:58:52;98143.16;;;7.72;100.00
70445;BME280;57902;49.638;11.070;2023-12-29T03:01:19;98137.19;;;7.71;100.00
70445;BME280;57902;49.638;11.070;2023-12-29T03:03:46;98132.16;;;7.67;100.00
70445;BME280;57902;49.638;11.070;2023-12-29T03:06:13;98131.28;;;7.69;100.00
70445;BME280;57902;49.638;11.070;2023-12-29T03:08:39;98132.84;;;7.75;100.00
70445;BME280;57902;49.638;11.070;2023-12-29T03:11:06;98122.69;;;7.69;100.00
70445;BME280;57902;49.638;11.070;2023-12-29T03:13:32;98123.69;;;7.62;100.00
70445;BME280;57902;49.638;11.070;2023-12-29T03:15:59;98123.03;;;7.53;100.00
70445;BME280;57902;49.638;11.070;2023-12-29T03:18:26;98122.31;;;7.45;100.00
70445;BME280;57902;49.638;11.070;2023-12-29T03:20:53;98103.69;;;7.37;100.00
70445;BME280;57902;49.638;11.070;2023-12-29T03:23:19;98116.63;;;7.31;100.00
70445;BME280;57902;49.638;11.070;2023-12-29T03:25:46;98116.69;;;7.28;100.00
70445;BME280;57902;49.638;11.070;2023-12-29T03:28:12;98111.72;;;7.18;100.00
70445;BME280;57902;49.638;11.070;2023-12-29T03:30:38;98116.03;;;7.18;100.00
70445;BME280;57902;49.638;11.070;2023-12-29T03:33:05;98120.31;;;7.16;100.00
70445;BME280;57902;49.638;11.070;2023-12-29T03:35:32;98123.81;;;7.12;100.00
70445;BME280;57902;49.638;11.070;2023-12-29T03:37:59;98118.75;;;7.07;100.00
70445;BME280;57902;49.638;11.070;2023-12-29T03:40:26;98118.06;;;6.99;100.00
70445;BME280;57902;49.638;11.070;2023-12-29T03:42:52;98122.22;;;7.06;100.00
70445;BME280;57902;49.638;11.070;2023-12-29T03:45:19;98123.22;;;6.96;100.00
70445;BME280;57902;49.638;11.070;2023-12-29T03:47:45;98124.09;;;6.96;100.00
70445;BME280;57902;49.638;11.070;2023-12-29T03:50:12;98121.53;;;6.96;100.00
70445;BME280;57902;49.638;11.070;2023-12-29T03:52:38;98117.28;;;6.94;100.00
70445;BME280;57902;49.638;11.070;2023-12-29T03:55:05;98126.69;;;6.95;100.00
70445;BME280;57902;49.638;11.070;2023-12-29T03:57:32;98117.50;;;6.83;100.00
70445;BME280;57902;49.638;11.070;2023-12-29T03:59:59;98119.13;;;6.87;100.00
70445;BME280;57902;49.638;11.070;2023-12-29T04:02:25;98115.84;;;6.79;100.00
70445;BME280;57902;49.638;11.070;2023-12-29T04:04:52;98118.50;;;6.74;100.00
70445;BME280;57902;49.638;11.070;2023-12-29T04:07:18;98127.03;;;6.73;100.00
70445;BME280;57902;49.638;11.070;2023-12-29T04:09:45;98120.22;;;6.72;100.00
70445;BME280;57902;49.638;11.070;2023-12-29T04:12:12;98121.13;;;6.71;100.00
70445;BME280;57902;49.638;11.070;2023-12-29T04:14:38;98122.00;;;6.69;100.00
70445;BME280;57902;49.638;11.070;2023-12-29T04:17:05;98116.75;;;6.76;100.00
70445;BME280;57902;49.638;11.070;2023-12-29T04:19:40;98121.69;;;6.86;100.00
70445;BME280;57902;49.638;11.070;2023-12-29T04:22:07;98121.63;;;6.92;100.00
70445;BME280;57902;49.638;11.070;2023-12-29T04:24:37;98123.19;;;7.00;100.00
70445;BME280;57902;49.638;11.070;2023-12-29T04:27:04;98119.69;;;7.03;100.00
70445;BME280;57902;49.638;11.070;2023-12-29T04:29:31;98109.28;;;7.12;100.00
70445;BME280;57902;49.638;11.070;2023-12-29T04:31:58;98110.91;;;7.18;100.00
70445;BME280;57902;49.638;11.070;2023-12-29T04:34:24;98121.16;;;7.18;100.00
70445;BME280;57902;49.638;11.070;2023-12-29T04:36:51;98122.56;;;7.33;100.00
70445;BME280;57902;49.638;11.070;2023-12-29T04:39:17;98119.13;;;7.34;100.00
70445;BME280;57902;49.638;11.070;2023-12-29T04:41:44;98111.34;;;7.39;100.00
70445;BME280;57902;49.638;11.070;2023-12-29T04:44:11;98109.34;;;7.53;100.00
70445;BME280;57902;49.638;11.070;2023-12-29T04:46:37;98116.91;;;7.61;100.00
70445;BME280;57902;49.638;11.070;2023-12-29T04:49:04;98124.59;;;7.61;100.00
70445;BME280;57902;49.638;11.070;2023-12-29T04:51:30;98119.56;;;7.56;100.00
70445;BME280;57902;49.638;11.070;2023-12-29T04:53:57;98114.25;;;7.65;100.00
70445;BME280;57902;49.638;11.070;2023-12-29T04:56:23;98119.44;;;7.62;100.00
70445;BME280;57902;49.638;11.070;2023-12-29T04:58:53;98120.97;;;7.71;100.00
70445;BME280;57902;49.638;11.070;2023-12-29T05:01:21;98120.78;;;7.80;100.00
70445;BME280;57902;49.638;11.070;2023-12-29T05:03:48;98118.22;;;7.80;100.00
70445;BME280;57902;49.638;11.070;2023-12-29T05:06:14;98132.63;;;7.86;100.00
70445;BME280;57902;49.638;11.070;2023-12-29T05:08:41;98115.38;;;7.93;100.00
70445;BME280;57902;49.638;11.070;2023-12-29T05:11:08;98121.63;;;8.20;100.00
70445;BME280;57902;49.638;11.070;2023-12-29T05:13:35;98118.94;;;8.24;100.00
70445;BME280;57902;49.638;11.070;2023-12-29T05:16:01;98115.75;;;8.13;100.00
70445;BME280;57902;49.638;11.070;2023-12-29T05:18:30;98113.88;;;8.21;100.00
70445;BME280;57902;49.638;11.070;2023-12-29T05:20:56;98115.44;;;8.29;100.00
70445;BME280;57902;49.638;11.070;2023-12-29T05:23:23;98111.00;;;8.34;100.00
70445;BME280;57902;49.638;11.070;2023-12-29T05:25:49;98115.31;;;8.33;100.00
70445;BME280;57902;49.638;11.070;2023-12-29T05:28:17;98112.06;;;8.27;100.00
70445;BME280;57902;49.638;11.070;2023-12-29T05:30:44;98111.88;;;8.34;100.00
70445;BME280;57902;49.638;11.070;2023-12-29T05:33:10;98122.34;;;8.27;100.00
70445;BME280;57902;49.638;11.070;2023-12-29T05:35:37;98122.34;;;8.27;100.00
70445;BME280;57902;49.638;11.070;2023-12-29T05:38:03;98124.25;;;8.17;100.00
70445;BME280;57902;49.638;11.070;2023-12-29T05:40:30;98122.72;;;8.10;100.00
70445;BME280;57902;49.638;11.070;2023-12-29T05:42:57;98126.78;;;8.18;100.00
70445;BME280;57902;49.638;11.070;2023-12-29T05:45:23;98127.81;;;8.11;100.00
70445;BME280;57902;49.638;11.070;2023-12-29T05:47:50;98124.38;;;8.12;100.00
70445;BME280;57902;49.638;11.070;2023-12-29T05:50:16;98115.88;;;8.09;100.00
70445;BME280;57902;49.638;11.070;2023-12-29T05:52:43;98115.91;;;8.07;100.00
70445;BME280;57902;49.638;11.070;2023-12-29T05:55:09;98107.56;;;7.99;100.00
70445;BME280;57902;49.638;11.070;2023-12-29T05:57:36;98110.09;;;8.00;100.00
70445;BME280;57902;49.638;11.070;2023-12-29T06:00:02;98102.53;;;7.93;100.00
70445;BME280;57902;49.638;11.070;2023-12-29T06:02:29;98117.22;;;7.86;100.00
70445;BME280;57902;49.638;11.070;2023-12-29T06:04:56;98098.69;;;7.73;100.00
70445;BME280;57902;49.638;11.070;2023-12-29T06:07:22;98105.69;;;7.65;100.00
70445;BME280;57902;49.638;11.070;2023-12-29T06:09:49;98100.69;;;7.59;100.00
70445;BME280;57902;49.638;11.070;2023-12-29T06:12:15;98103.31;;;7.56;100.00
70445;BME280;57902;49.638;11.070;2023-12-29T06:14:42;98105.00;;;7.57;100.00
70445;BME280;57902;49.638;11.070;2023-12-29T06:17:09;98098.41;;;7.45;100.00
70445;BME280;57902;49.638;11.070;2023-12-29T06:19:35;98086.56;;;7.39;100.00
70445;BME280;57902;49.638;11.070;2023-12-29T06:22:02;98083.22;;;7.34;100.00
70445;BME280;57902;49.638;11.070;2023-12-29T06:24:29;98081.81;;;7.19;100.00
70445;BME280;57902;49.638;11.070;2023-12-29T06:26:55;98092.97;;;7.16;100.00
70445;BME280;57902;49.638;11.070;2023-12-29T06:29:22;98094.94;;;7.02;100.00
70445;BME280;57902;49.638;11.070;2023-12-29T06:31:48;98099.41;;;6.91;100.00
70445;BME280;57902;49.638;11.070;2023-12-29T06:34:15;98094.56;;;6.77;100.00
70445;BME280;57902;49.638;11.070;2023-12-29T06:36:41;98094.53;;;6.75;100.00
70445;BME280;57902;49.638;11.070;2023-12-29T06:39:08;98093.88;;;6.65;100.00
70445;BME280;57902;49.638;11.070;2023-12-29T06:41:34;98087.03;;;6.66;100.00
70445;BME280;57902;49.638;11.070;2023-12-29T06:44:01;98093.84;;;6.67;100.00
70445;BME280;57902;49.638;11.070;2023-12-29T06:46:27;98095.53;;;6.70;100.00
70445;BME280;57902;49.638;11.070;2023-12-29T06:48:54;98097.97;;;6.76;100.00
70445;BME280;57902;49.638;11.070;2023-12-29T06:51:21;98099.66;;;6.78;100.00
70445;BME280;57902;49.638;11.070;2023-12-29T06:53:49;98099.53;;;6.85;100.00
70445;BME280;57902;49.638;11.070;2023-12-29T06:56:16;98096.78;;;6.95;100.00
70445;BME280;57902;49.638;11.070;2023-12-29T06:58:44;98098.47;;;6.96;100.00
70445;BME280;57902;49.638;11.070;2023-12-29T07:01:11;98099.34;;;6.94;100.00
70445;BME280;57902;49.638;11.070;2023-12-29T07:03:37;98108.72;;;6.96;100.00
70445;BME280;57902;49.638;11.070;2023-12-29T07:06:04;98107.81;;;6.99;100.00
70445;BME280;57902;49.638;11.070;2023-12-29T07:08:31;98109.56;;;6.97;100.00
70445;BME280;57902;49.638;11.070;2023-12-29T07:10:58;98115.41;;;7.05;100.00
70445;BME280;57902;49.638;11.070;2023-12-29T07:13:25;98111.81;;;7.14;100.00
70445;BME280;57902;49.638;11.070;2023-12-29T07:15:51;98106.56;;;7.20;100.00
70445;BME280;57902;49.638;11.070;2023-12-29T07:18:18;98112.44;;;7.25;100.00
70445;BME280;57902;49.638;11.070;2023-12-29T07:20:45;98117.38;;;7.36;100.00
70445;BME280;57902;49.638;11.070;2023-12-29T07:23:11;98118.16;;;7.40;100.00
70445;BME280;57902;49.638;11.070;2023-12-29T07:25:38;98121.53;;;7.43;100.00
70445;BME280;57902;49.638;11.070;2023-12-29T07:28:04;98125.72;;;7.47;100.00
70445;BME280;57902;49.638;11.070;2023-12-29T07:30:31;98120.53;;;7.50;100.00
70445;BME280;57902;49.638;11.070;2023-12-29T07:32:57;98124.72;;;7.53;100.00
70445;BME280;57902;49.638;11.070;2023-12-29T07:35:24;98125.47;;;7.60;100.00
70445;BME280;57902;49.638;11.070;2023-12-29T07:37:51;98124.44;;;7.68;100.00
70445;BME280;57902;49.638;11.070;2023-12-29T07:40:17;98136.16;;;7.80;100.00
70445;BME280;57902;49.638;11.070;2023-12-29T07:42:45;98140.22;;;7.91;100.00
70445;BME280;57902;49.638;11.070;2023-12-29T07:45:13;98146.94;;;7.98;100.00
70445;BME280;57902;49.638;11.070;2023-12-29T07:47:40;98146.09;;;7.97;100.00
70445;BME280;57902;49.638;11.070;2023-12-29T07:50:06;98157.16;;;7.99;100.00
70445;BME280;57902;49.638;11.070;2023-12-29T07:52:33;98148.53;;;8.03;100.00
70445;BME280;57902;49.638;11.070;2023-12-29T07:55:00;98149.34;;;8.04;100.00
70445;BME280;57902;49.638;11.070;2023-12-29T07:57:26;98156.22;;;8.03;100.00
70445;BME280;57902;49.638;11.070;2023-12-29T07:59:53;98162.91;;;8.11;100.00
70445;BME280;57902;49.638;11.070;2023-12-29T08:02:20;98165.69;;;8.00;100.00
70445;BME280;57902;49.638;11.070;2023-12-29T08:04:46;98155.34;;;8.03;100.00
70445;BME280;57902;49.638;11.070;2023-12-29T08:07:15;98164.13;;;7.93;100.00
70445;BME280;57902;49.638;11.070;2023-12-29T08:09:41;98168.47;;;7.91;100.00
70445;BME280;57902;49.638;11.070;2023-12-29T08:12:08;98169.94;;;8.02;100.00
70445;BME280;57902;49.638;11.070;2023-12-29T08:14:35;98183.19;;;8.23;100.00
70445;BME280;57902;49.638;11.070;2023-12-29T08:17:02;98177.34;;;8.16;100.00
70445;BME280;57902;49.638;11.070;2023-12-29T08:19:29;98184.22;;;8.14;100.00
70445;BME280;57902;49.638;11.070;2023-12-29T08:21:56;98196.00;;;8.24;100.00
70445;BME280;57902;49.638;11.070;2023-12-29T08:24:23;98188.97;;;8.33;100.00
70445;BME280;57902;49.638;11.070;2023-12-29T08:26:49;98186.34;;;8.36;100.00
70445;BME280;57902;49.638;11.070;2023-12-29T08:29:16;98175.88;;;8.44;100.00
70445;BME280;57902;49.638;11.070;2023-12-29T08:31:42;98180.53;;;8.67;100.00
70445;BME280;57902;49.638;11.070;2023-12-29T08:34:10;98180.69;;;8.61;100.00
70445;BME280;57902;49.638;11.070;2023-12-29T08:36:37;98192.94;;;8.85;100.00
70445;BME280;57902;49.638;11.070;2023-12-29T08:39:04;98191.13;;;8.89;100.00
70445;BME280;57902;49.638;11.070;2023-12-29T08:41:30;98183.34;;;8.92;100.00
70445;BME280;57902;49.638;11.070;2023-12-29T08:43:57;98197.34;;;8.80;100.00
70445;BME280;57902;49.638;11.070;2023-12-29T08:46:23;98191.97;;;8.89;100.00
70445;BME280;57902;49.638;11.070;2023-12-29T08:48:50;98205.56;;;8.95;100.00
70445;BME280;57902;49.638;11.070;2023-12-29T08:51:17;98194.13;;;9.06;100.00
70445;BME280;57902;49.638;11.070;2023-12-29T08:53:44;98193.34;;;9.03;100.00
70445;BME280;57902;49.638;11.070;2023-12-29T08:56:10;98196.75;;;9.05;100.00
70445;BME280;57902;49.638;11.070;2023-12-29T08:58:37;98196.63;;;9.09;99.66
70445;BME280;57902;49.638;11.070;2023-12-29T09:01:03;98192.47;;;9.04;100.00
70445;BME280;57902;49.638;11.070;2023-12-29T09:03:30;98201.69;;;9.13;99.35
70445;BME280;57902;49.638;11.070;2023-12-29T09:05:57;98203.06;;;9.26;98.43
70445;BME280;57902;49.638;11.070;2023-12-29T09:08:25;98197.25;;;9.19;98.69
70445;BME280;57902;49.638;11.070;2023-12-29T09:10:51;98199.16;;;9.11;99.59
70445;BME280;57902;49.638;11.070;2023-12-29T09:13:18;98204.88;;;9.22;98.94
70445;BME280;57902;49.638;11.070;2023-12-29T09:15:48;98204.09;;;9.19;99.41
70445;BME280;57902;49.638;11.070;2023-12-29T09:18:15;98212.69;;;9.19;99.86
70445;BME280;57902;49.638;11.070;2023-12-29T09:20:42;98213.63;;;9.15;100.00
70445;BME280;57902;49.638;11.070;2023-12-29T09:23:08;98209.13;;;9.23;99.76
70445;BME280;57902;49.638;11.070;2023-12-29T09:25:35;98216.94;;;9.53;96.92
70445;BME280;57902;49.638;11.070;2023-12-29T09:28:02;98215.25;;;9.52;96.76
70445;BME280;57902;49.638;11.070;2023-12-29T09:30:30;98214.22;;;9.59;97.76
70445;BME280;57902;49.638;11.070;2023-12-29T09:32:56;98207.00;;;9.72;96.11
70445;BME280;57902;49.638;11.070;2023-12-29T09:35:23;98211.25;;;10.05;93.41
70445;BME280;57902;49.638;11.070;2023-12-29T09:37:50;98210.38;;;10.04;94.40
70445;BME280;57902;49.638;11.070;2023-12-29T09:40:17;98215.06;;;10.21;92.03
70445;BME280;57902;49.638;11.070;2023-12-29T09:42:44;98215.50;;;10.37;92.43
70445;BME280;57902;49.638;11.070;2023-12-29T09:45:13;98203.69;;;10.58;89.44
70445;BME280;57902;49.638;11.070;2023-12-29T09:47:42;98203.59;;;10.31;91.75
70445;BME280;57902;49.638;11.070;2023-12-29T09:50:13;98191.69;;;10.57;89.42
70445;BME280;57902;49.638;11.070;2023-12-29T09:52:40;98187.44;;;10.56;89.41
70445;BME280;57902;49.638;11.070;2023-12-29T09:55:08;98184.75;;;10.59;88.43
70445;BME280;57902;49.638;11.070;2023-12-29T09:57:39;98191.66;;;10.29;89.39
70445;BME280;57902;49.638;11.070;2023-12-29T10:00:10;98166.66;;;10.32;88.10
70445;BME280;57902;49.638;11.070;2023-12-29T10:02:38;98165.47;;;10.44;85.91
70445;BME280;57902;49.638;11.070;2023-12-29T10:05:05;98167.41;;;10.36;84.94
70445;BME280;57902;49.638;11.070;2023-12-29T10:07:35;98160.25;;;10.46;84.88
70445;BME280;57902;49.638;11.070;2023-12-29T10:10:05;98157.94;;;10.38;83.49
70445;BME280;57902;49.638;11.070;2023-12-29T10:12:34;98161.69;;;10.26;85.83
70445;BME280;57902;49.638;11.070;2023-12-29T10:17:46;98165.53;;;10.11;87.71
70445;BME280;57902;49.638;11.070;2023-12-29T10:20:44;98170.38;;;9.92;89.28
70445;BME280;57902;49.638;11.070;2023-12-29T10:23:17;98157.59;;;9.89;90.36
70445;BME280;57902;49.638;11.070;2023-12-29T10:25:45;98162.94;;;9.83;91.32
70445;BME280;57902;49.638;11.070;2023-12-29T10:28:13;98153.56;;;9.80;91.45
70445;BME280;57902;49.638;11.070;2023-12-29T10:30:39;98159.56;;;9.81;91.03
70445;BME280;57902;49.638;11.070;2023-12-29T10:33:07;98159.91;;;9.69;92.57
70445;BME280;57902;49.638;11.070;2023-12-29T10:35:35;98149.75;;;9.64;92.94
70445;BME280;57902;49.638;11.070;2023-12-29T10:38:10;98151.56;;;9.60;94.25
70445;BME280;57902;49.638;11.070;2023-12-29T10:40:38;98157.47;;;9.64;94.81
70445;BME280;57902;49.638;11.070;2023-12-29T10:43:05;98150.78;;;9.57;95.17
70445;BME280;57902;49.638;11.070;2023-12-29T10:45:34;98144.91;;;9.53;96.40
70445;BME280;57902;49.638;11.070;2023-12-29T10:48:01;98134.59;;;9.53;96.66
70445;BME280;57902;49.638;11.070;2023-12-29T10:50:28;98127.06;;;9.47;97.08
70445;BME280;57902;49.638;11.070;2023-12-29T10:53:11;98119.22;;;9.52;96.81
70445;BME280;57902;49.638;11.070;2023-12-29T10:55:39;98119.88;;;9.27;99.30
70445;BME280;57902;49.638;11.070;2023-12-29T10:58:06;98121.13;;;9.12;100.00
70445;BME280;57902;49.638;11.070;2023-12-29T11:00:32;98120.31;;;9.10;100.00
70445;BME280;57902;49.638;11.070;2023-12-29T11:02:59;98117.78;;;9.08;100.00
70445;BME280;57902;49.638;11.070;2023-12-29T11:05:27;98115.38;;;9.02;100.00
70445;BME280;57902;49.638;11.070;2023-12-29T11:07:54;98118.78;;;9.03;100.00
70445;BME280;57902;49.638;11.070;2023-12-29T11:10:22;98116.50;;;8.92;100.00
70445;BME280;57902;49.638;11.070;2023-12-29T11:12:49;98120.06;;;8.86;100.00
70445;BME280;57902;49.638;11.070;2023-12-29T11:15:17;98107.13;;;8.89;100.00
70445;BME280;57902;49.638;11.070;2023-12-29T11:17:44;98106.38;;;8.86;100.00
70445;BME280;57902;49.638;11.070;2023-12-29T11:20:16;98102.94;;;8.87;100.00
70445;BME280;57902;49.638;11.070;2023-12-29T11:22:46;98100.16;;;8.95;100.00
70445;BME280;57902;49.638;11.070;2023-12-29T11:25:13;98098.16;;;9.06;100.00
70445;BME280;57902;49.638;11.070;2023-12-29T11:27:42;98103.19;;;9.10;100.00
70445;BME280;57902;49.638;11.070;2023-12-29T11:30:12;98103.13;;;9.12;100.00
70445;BME280;57902;49.638;11.070;2023-12-29T11:35:28;98104.31;;;9.32;100.00
70445;BME280;57902;49.638;11.070;2023-12-29T11:41:08;98099.84;;;9.38;100.00
70445;BME280;57902;49.638;11.070;2023-12-29T11:43:37;98102.13;;;9.49;100.00
70445;BME280;57902;49.638;11.070;2023-12-29T11:46:03;98093.63;;;9.47;100.00
70445;BME280;57902;49.638;11.070;2023-12-29T11:48:56;98092.47;;;9.57;100.00
70445;BME280;57902;49.638;11.070;2023-12-29T11:54:06;98091.88;;;9.77;100.00
70445;BME280;57902;49.638;11.070;2023-12-29T11:56:38;98088.13;;;9.88;100.00
70445;BME280;57902;49.638;11.070;2023-12-29T11:59:20;98077.38;;;10.03;98.46
70445;BME280;57902;49.638;11.070;2023-12-29T12:01:48;98074.38;;;10.17;97.53
70445;BME280;57902;49.638;11.070;2023-12-29T12:04:41;98066.78;;;10.12;96.24
70445;BME280;57902;49.638;11.070;2023-12-29T12:09:48;98063.03;;;10.23;88.96
70445;BME280;57902;49.638;11.070;2023-12-29T12:12:38;98062.88;;;10.27;89.28
70445;BME280;57902;49.638;11.070;2023-12-29T12:17:59;98062.94;;;10.54;87.62
70445;BME280;57902;49.638;11.070;2023-12-29T12:20:26;98060.91;;;10.62;86.29
70445;BME280;57902;49.638;11.070;2023-12-29T12:23:01;98050.50;;;10.65;84.63
70445;BME280;57902;49.638;11.070;2023-12-29T12:25:30;98056.41;;;10.69;85.84
70445;BME280;57902;49.638;11.070;2023-12-29T12:28:05;98048.66;;;10.94;82.31
70445;BME280;57902;49.638;11.070;2023-12-29T12:30:33;98053.03;;;10.92;83.18
70445;BME280;57902;49.638;11.070;2023-12-29T12:33:02;98042.50;;;10.98;80.40
70445;BME280;57902;49.638;11.070;2023-12-29T12:35:30;98057.56;;;10.85;80.79
70445;BME280;57902;49.638;11.070;2023-12-29T12:38:26;98044.09;;;10.77;83.01
70445;BME280;57902;49.638;11.070;2023-12-29T12:40:56;98053.50;;;10.78;83.82
70445;BME280;57902;49.638;11.070;2023-12-29T12:43:25;98049.88;;;10.84;82.03
70445;BME280;57902;49.638;11.070;2023-12-29T12:45:59;98047.38;;;10.82;80.75
70445;BME280;57902;49.638;11.070;2023-12-29T12:48:36;98037.81;;;10.84;80.09
70445;BME280;57902;49.638;11.070;2023-12-29T12:51:07;98041.03;;;10.91;79.80
70445;BME280;57902;49.638;11.070;2023-12-29T12:53:39;98039.50;;;10.85;81.24
70445;BME280;57902;49.638;11.070;2023-12-29T12:56:06;98044.72;;;10.84;81.19
70445;BME280;57902;49.638;11.070;2023-12-29T12:58:34;98033.78;;;10.77;80.93
70445;BME280;57902;49.638;11.070;2023-12-29T13:01:01;98042.50;;;10.73;81.40
70445;BME280;57902;49.638;11.070;2023-12-29T13:03:29;98034.31;;;10.87;79.48
70445;BME280;57902;49.638;11.070;2023-12-29T13:06:00;98040.25;;;10.64;80.92
70445;BME280;57902;49.638;11.070;2023-12-29T13:08:27;98034.47;;;10.82;80.32
70445;BME280;57902;49.638;11.070;2023-12-29T13:11:03;98037.44;;;10.70;81.03
70445;BME280;57902;49.638;11.070;2023-12-29T13:16:04;98027.91;;;10.74;81.71